Espanola, Washington
Current Conditions -  °F | °C
As of 1:58 AM on Wednesday 26 Nov 2014 (Local Time) from KSKA Reporting Station
Overcast Overcast  
Wind Chill:   Ceiling: 700
Heat Index:   Visibility: 8mi
Dew Point:   Wind: 3mph
Humidity: 99%   Direction: 40°NE
Pressure: 30.15"   Gusts: NA
Location:  47.6094°N, 117.705°W
Report Text: KSKA 260958Z AUTO 04003KT 8SM R05/5500FT OVC007 00/00 A3015 RMK AO2 SLP233 T00030002
Loading
Personal Weather Stations






























Interactive Weather Map New forecast layout! Learn more

10-Day Weather Forecast

Advertisements
Track Severe Weather on mobile